Main page
Satellite images 10-day forecastsClimateMarine weather Cyclones Lightning AirportsFAQ Newsletter About
Weather : Europe Africa North America South America Asia Australia-Oceania Others
Languages Contact

Baia Mare, Romania

Baia Mare Airport

latitude: 47-40N, longitude: 023-35E, elevation: 218 m


METAR: LRBM 061100Z 10007KT 9999 FEW043 27/16 Q1011
TAF: LRBM 060800Z 0609/0618 14008KT CAVOK

Time: 14:27 (11:27 UTC)

Current weather observation

The report was made 27 minutes ago, at 11:00 UTC
Wind 7 kt from the East
Temperature 27°C
Humidity 51%
Pressure 1011 hPa
Visibility 10 km or more
Few clouds at a height of 4300 ft

Change units

Forecast

The report was made 3 hours and 27 minutes ago, at 08:00 UTC
Forecast valid from 06 at 09 UTC to 06 at 18 UTC
Wind 8 kt from the Southeast
Visibility 10 km or more
no clouds below 1500 m and no cumulonimbus
The information on this site is subject to a disclaimer
Weather : Europe Africa North America South America Asia Australia-Oceania Others
Satellite images 10-day forecastsClimateMarine weather Cyclones Lightning AirportsFAQ Languages Contact Newsletter About